Redrun, Pennsylvania
Current Conditions -  °F | °C
As of 12:53 AM on Sunday 21 Dec 2014 (Local Time) from KLNS Reporting Station
Overcast Overcast  
Wind Chill: 23°   Ceiling: 3100
Heat Index: 28°   Visibility: 8mi
Dew Point: 23°   Wind: 5mph
Humidity: 81%   Direction: 280°W
Pressure: 30.28"   Gusts: NA
Location:  40.2484°N, 76.2239°W
Report Text: KLNS 210553Z AUTO 28004KT 8SM OVC031 M02/M05 A3028 RMK AO2 SLP257 T10221050 11006 21033 57003
Loading
Personal Weather Stations






























Interactive Weather Map New forecast layout! Learn more

10-Day Weather Forecast

Advertisements
Track Severe Weather on mobile